createdAt,value
2023-02-11T00:02:13.237Z,18.00
2023-02-11T00:04:39.849Z,17.98
2023-02-11T00:07:06.533Z,17.52
2023-02-11T00:09:33.173Z,17.77
2023-02-11T00:11:59.707Z,18.33
2023-02-11T00:14:26.758Z,16.88
2023-02-11T00:16:53.391Z,16.00
2023-02-11T00:19:20.431Z,16.52
2023-02-11T00:21:46.965Z,16.73
2023-02-11T00:24:13.500Z,15.55
2023-02-11T00:26:40.162Z,14.88
2023-02-11T00:29:07.085Z,15.00
2023-02-11T00:31:34.463Z,16.25
2023-02-11T00:34:01.270Z,13.85
2023-02-11T00:36:29.756Z,14.30
2023-02-11T00:38:57.513Z,13.43
2023-02-11T00:41:24.564Z,14.15
2023-02-11T00:43:52.221Z,14.40
2023-02-11T00:46:19.406Z,13.57
2023-02-11T00:48:46.002Z,13.60
2023-02-11T00:51:12.757Z,12.45
2023-02-11T00:53:39.689Z,13.63
2023-02-11T00:56:07.983Z,14.32
2023-02-11T00:58:35.225Z,13.40
2023-02-11T01:01:02.011Z,13.52
2023-02-11T01:03:28.996Z,14.02
2023-02-11T01:05:55.744Z,13.35
2023-02-11T01:08:22.786Z,12.38
2023-02-11T01:11:04.882Z,14.38
2023-02-11T01:13:35.215Z,12.40
2023-02-11T01:16:02.139Z,12.65
2023-02-11T01:18:28.893Z,12.05
2023-02-11T01:20:55.629Z,13.20
2023-02-11T01:23:23.286Z,12.70
2023-02-11T01:25:50.506Z,12.00
2023-02-11T01:28:25.600Z,11.88
2023-02-11T01:30:52.549Z,11.77
2023-02-11T01:33:19.664Z,12.48
2023-02-11T01:35:46.613Z,11.38
2023-02-11T01:38:24.412Z,11.25
2023-02-11T01:40:54.221Z,11.23
2023-02-11T01:43:21.879Z,11.73
2023-02-11T01:45:48.737Z,11.57
2023-02-11T01:48:20.686Z,11.85
2023-02-11T01:50:50.799Z,10.82
2023-02-11T01:53:38.221Z,11.27
2023-02-11T01:56:24.415Z,11.52
2023-02-11T01:58:53.322Z,10.60
2023-02-11T02:01:25.123Z,10.85
2023-02-11T02:03:56.793Z,11.02
2023-02-11T02:06:32.165Z,11.20
2023-02-11T02:09:27.977Z,11.60
2023-02-11T02:11:54.735Z,10.57
2023-02-11T02:14:21.563Z,10.77
2023-02-11T02:16:48.302Z,11.15
2023-02-11T02:19:48.722Z,11.32
2023-02-11T02:22:55.497Z,11.35
2023-02-11T02:28:26.493Z,11.88
2023-02-11T02:31:14.759Z,11.65
2023-02-11T02:33:45.426Z,11.20
2023-02-11T02:36:23.871Z,11.32
2023-02-11T02:39:01.435Z,11.25
2023-02-11T02:41:31.785Z,11.15
2023-02-11T02:43:58.704Z,11.82
2023-02-11T02:46:31.515Z,11.90
2023-02-11T02:48:59.151Z,11.23
2023-02-11T02:51:56.197Z,11.23
2023-02-11T02:55:01.544Z,11.07
2023-02-11T02:57:53.166Z,11.30
2023-02-11T03:00:44.428Z,10.68
2023-02-11T03:03:36.019Z,11.20
2023-02-11T03:06:32.123Z,12.38
2023-02-11T03:09:12.997Z,11.18
2023-02-11T03:11:40.037Z,11.77
2023-02-11T03:14:10.572Z,11.68
2023-02-11T03:16:39.668Z,10.73
2023-02-11T03:19:13.877Z,11.05
2023-02-11T03:21:43.376Z,10.98
2023-02-11T03:24:19.431Z,11.20
2023-02-11T03:26:51.498Z,11.55
2023-02-11T03:29:29.908Z,11.45
2023-02-11T03:32:06.950Z,10.35
2023-02-11T03:34:42.339Z,10.93
2023-02-11T03:37:22.184Z,10.80
2023-02-11T03:39:56.395Z,11.00
2023-02-11T03:42:27.225Z,11.20
2023-02-11T03:45:02.270Z,10.40
2023-02-11T03:47:33.915Z,11.50
2023-02-11T03:50:03.321Z,11.30
2023-02-11T03:52:30.772Z,10.23
2023-02-11T03:55:00.485Z,11.48
2023-02-11T03:57:27.216Z,11.13
2023-02-11T03:59:59.181Z,11.35
2023-02-11T04:02:30.742Z,10.63
2023-02-11T04:04:57.777Z,10.65
2023-02-11T04:07:25.213Z,10.88
2023-02-11T04:09:51.870Z,10.20
2023-02-11T04:12:18.400Z,10.15
2023-02-11T04:14:45.141Z,10.00
2023-02-11T04:17:12.807Z,10.00
2023-02-11T04:19:39.849Z,10.15
2023-02-11T04:22:07.417Z,10.32
2023-02-11T04:24:34.654Z,10.68
2023-02-11T04:27:01.291Z,11.23
2023-02-11T04:29:28.340Z,10.63
2023-02-11T04:31:55.366Z,11.02
2023-02-11T04:34:22.328Z,10.85
2023-02-11T04:36:49.479Z,11.15
2023-02-11T04:39:16.118Z,11.65
2023-02-11T04:41:42.807Z,11.35
2023-02-11T04:44:10.007Z,11.65
2023-02-11T04:46:37.010Z,11.68
2023-02-11T04:49:03.994Z,10.63
2023-02-11T04:51:30.728Z,11.07
2023-02-11T04:53:57.473Z,11.38
2023-02-11T04:56:24.103Z,11.50
2023-02-11T04:58:50.644Z,10.85
2023-02-11T05:01:17.573Z,10.88
2023-02-11T05:03:44.546Z,11.35
2023-02-11T05:06:11.775Z,11.25
2023-02-11T05:08:38.617Z,12.00
2023-02-11T05:11:06.176Z,11.48
2023-02-11T05:13:32.912Z,11.30
2023-02-11T05:15:59.958Z,11.82
2023-02-11T05:18:26.493Z,11.68
2023-02-11T05:20:53.132Z,11.95
2023-02-11T05:23:19.667Z,11.88
2023-02-11T05:25:46.299Z,12.10
2023-02-11T05:28:12.970Z,12.05
2023-02-11T05:30:39.866Z,12.55
2023-02-11T05:33:06.722Z,12.30
2023-02-11T05:35:33.338Z,12.18
2023-02-11T05:38:00.135Z,12.82
2023-02-11T05:40:26.837Z,12.57
2023-02-11T05:42:53.474Z,12.77
2023-02-11T05:45:20.084Z,12.55
2023-02-11T05:47:46.774Z,12.45
2023-02-11T05:50:13.569Z,13.30
2023-02-11T05:52:40.118Z,13.13
2023-02-11T05:55:07.066Z,12.82
2023-02-11T05:57:34.007Z,12.68
2023-02-11T06:00:00.658Z,12.95
2023-02-11T06:02:27.318Z,13.98
2023-02-11T06:04:53.919Z,13.63
2023-02-11T06:07:20.448Z,13.50
2023-02-11T06:09:46.982Z,14.40
2023-02-11T06:12:13.621Z,14.48
2023-02-11T06:14:40.255Z,13.32
2023-02-11T06:17:06.915Z,14.00
2023-02-11T06:19:33.877Z,13.82
2023-02-11T06:22:00.478Z,14.68
2023-02-11T06:24:48.134Z,13.93
2023-02-11T06:27:13.771Z,15.20
2023-02-11T06:29:40.336Z,13.98
2023-02-11T06:32:08.614Z,14.13
2023-02-11T06:34:38.652Z,15.65
2023-02-11T06:37:05.694Z,17.15
2023-02-11T06:39:32.417Z,15.23
2023-02-11T06:41:59.061Z,16.55
2023-02-11T06:44:25.894Z,15.57
2023-02-11T06:46:52.446Z,15.85
2023-02-11T06:49:19.196Z,16.05
2023-02-11T06:51:45.814Z,16.13
2023-02-11T06:54:13.069Z,16.95
2023-02-11T06:56:40.896Z,16.40
2023-02-11T06:59:07.673Z,16.98
2023-02-11T07:01:34.653Z,16.02
2023-02-11T07:04:01.310Z,17.70
2023-02-11T07:06:28.272Z,17.02
2023-02-11T07:08:55.745Z,17.25
2023-02-11T07:11:25.884Z,18.02
2023-02-11T07:13:54.853Z,18.60
2023-02-11T07:16:21.681Z,18.92
2023-02-11T07:18:48.955Z,19.38
2023-02-11T07:21:18.658Z,18.83
2023-02-11T07:23:46.219Z,20.05
2023-02-11T07:26:16.444Z,18.50
2023-02-11T07:28:43.702Z,19.60
2023-02-11T07:31:11.740Z,19.63
2023-02-11T07:33:42.080Z,20.08
2023-02-11T07:36:10.711Z,21.92
2023-02-11T07:38:38.637Z,21.10
2023-02-11T07:41:08.338Z,21.52
2023-02-11T07:43:36.105Z,21.13
2023-02-11T07:46:21.752Z,20.77
2023-02-11T07:48:48.834Z,22.75
2023-02-11T07:51:21.210Z,21.13
2023-02-11T07:53:48.254Z,22.23
2023-02-11T07:56:16.727Z,22.75
2023-02-11T07:58:44.288Z,23.60
2023-02-11T08:01:16.558Z,22.73
2023-02-11T08:03:43.292Z,22.58
2023-02-11T08:06:13.306Z,24.55
2023-02-11T08:08:40.556Z,24.17
2023-02-11T08:11:13.950Z,23.58
2023-02-11T08:13:42.327Z,23.40
2023-02-11T08:16:09.746Z,25.13
2023-02-11T08:18:36.535Z,24.20
2023-02-11T08:21:07.895Z,24.27
2023-02-11T08:23:38.586Z,25.65
2023-02-11T08:26:08.229Z,25.75
2023-02-11T08:28:36.949Z,25.70
2023-02-11T08:31:11.672Z,25.83
2023-02-11T08:33:40.710Z,27.05
2023-02-11T08:36:12.269Z,26.85
2023-02-11T08:38:39.104Z,27.13
2023-02-11T08:41:06.249Z,28.17
2023-02-11T08:43:33.446Z,28.60
2023-02-11T08:46:02.151Z,28.40
2023-02-11T08:48:29.142Z,26.98
2023-02-11T08:50:56.581Z,28.38
2023-02-11T08:53:23.550Z,28.73
2023-02-11T08:55:55.590Z,28.20
2023-02-11T08:58:22.521Z,27.83
2023-02-11T09:00:50.118Z,28.85
2023-02-11T09:03:17.959Z,29.50
2023-02-11T09:05:47.159Z,29.98
2023-02-11T09:08:16.453Z,30.88
2023-02-11T09:10:43.089Z,30.88
2023-02-11T09:13:10.031Z,30.77
2023-02-11T09:15:36.761Z,33.30
2023-02-11T09:18:04.026Z,30.70
2023-02-11T09:20:31.483Z,30.77
2023-02-11T09:23:00.981Z,30.05
2023-02-11T09:25:27.719Z,29.23
2023-02-11T09:27:54.269Z,30.95
2023-02-11T09:30:21.502Z,30.17
2023-02-11T09:32:48.255Z,29.55
2023-02-11T09:35:14.986Z,31.15
2023-02-11T09:37:41.622Z,29.70
2023-02-11T09:40:09.278Z,30.15
2023-02-11T09:42:50.968Z,29.60
2023-02-11T09:45:24.465Z,30.48
2023-02-11T09:47:56.734Z,29.70
2023-02-11T09:50:30.335Z,30.55
2023-02-11T09:53:29.877Z,31.40
2023-02-11T09:56:03.137Z,30.77
2023-02-11T09:58:36.229Z,31.35
2023-02-11T10:01:18.756Z,30.25
2023-02-11T10:04:34.616Z,31.27
2023-02-11T10:07:46.422Z,31.52
2023-02-11T10:10:47.772Z,30.60
2023-02-11T10:13:33.770Z,30.77
2023-02-11T10:16:38.137Z,31.45
2023-02-11T10:19:07.370Z,30.60
2023-02-11T10:21:51.831Z,32.70
2023-02-11T10:24:19.900Z,30.88
2023-02-11T10:26:46.972Z,31.73
2023-02-11T10:29:36.826Z,32.10
2023-02-11T10:32:15.458Z,30.50
2023-02-11T10:34:42.489Z,31.40
2023-02-11T10:37:13.536Z,30.67
2023-02-11T10:39:40.891Z,30.70
2023-02-11T10:42:12.025Z,30.75
2023-02-11T10:44:52.074Z,31.98
2023-02-11T10:47:24.347Z,33.15
2023-02-11T10:49:51.183Z,31.70
2023-02-11T10:52:17.627Z,32.38
2023-02-11T10:55:01.073Z,32.05
2023-02-11T10:57:37.827Z,31.23
2023-02-11T11:00:27.394Z,31.70
2023-02-11T11:02:59.879Z,31.25
2023-02-11T11:05:36.239Z,33.97
2023-02-11T11:08:08.924Z,33.28
2023-02-11T11:10:45.987Z,32.35
2023-02-11T11:13:32.602Z,32.38
2023-02-11T11:16:09.592Z,32.10
2023-02-11T11:18:36.312Z,32.20
2023-02-11T11:21:07.659Z,33.90
2023-02-11T11:23:38.698Z,33.45
2023-02-11T11:26:11.535Z,34.53
2023-02-11T11:28:55.836Z,34.35
2023-02-11T11:31:29.982Z,34.47
2023-02-11T11:33:59.354Z,33.70
2023-02-11T11:36:46.258Z,34.05
2023-02-11T11:39:29.796Z,34.10
2023-02-11T11:42:00.391Z,32.03
2023-02-11T11:44:39.642Z,33.72
2023-02-11T11:47:12.234Z,34.47
2023-02-11T11:49:51.143Z,32.45
2023-02-11T11:53:01.206Z,32.45
2023-02-11T11:55:35.101Z,30.23
2023-02-11T11:58:01.967Z,31.67
2023-02-11T12:00:36.571Z,31.50
2023-02-11T12:03:21.694Z,31.08
2023-02-11T12:06:07.220Z,31.10
2023-02-11T12:08:41.327Z,31.00
2023-02-11T12:11:19.943Z,31.42
2023-02-11T12:13:57.979Z,31.00
2023-02-11T12:17:09.028Z,31.52
2023-02-11T12:19:48.054Z,29.02
2023-02-11T12:22:52.995Z,32.00
2023-02-11T12:25:38.672Z,29.75
2023-02-11T12:28:58.961Z,29.30
2023-02-11T12:31:37.246Z,28.10
2023-02-11T12:34:21.829Z,29.55
2023-02-11T12:37:17.454Z,28.73
2023-02-11T12:40:03.338Z,28.63
2023-02-11T12:46:17.050Z,27.58
2023-02-11T12:49:04.515Z,26.35
2023-02-11T12:51:58.805Z,27.38
2023-02-11T12:54:44.482Z,28.15
2023-02-11T12:57:22.039Z,26.45
2023-02-11T13:00:05.094Z,27.38
2023-02-11T13:02:44.621Z,26.05
2023-02-11T13:05:24.995Z,26.02
2023-02-11T13:07:55.523Z,26.45
2023-02-11T13:10:27.694Z,23.65
2023-02-11T13:13:14.393Z,25.08
2023-02-11T13:15:56.095Z,22.75
2023-02-11T13:18:37.534Z,24.85
2023-02-11T13:21:16.547Z,25.88
2023-02-11T13:23:57.981Z,24.33
2023-02-11T13:26:52.570Z,22.58
2023-02-11T13:29:32.416Z,21.92
2023-02-11T13:32:08.440Z,20.92
2023-02-11T13:34:41.165Z,21.92
2023-02-11T13:37:47.628Z,22.17
2023-02-11T13:40:27.163Z,21.77
2023-02-11T13:43:00.250Z,23.85
2023-02-11T13:45:33.575Z,23.08
2023-02-11T13:48:05.191Z,22.85
2023-02-11T13:50:39.543Z,24.35
2023-02-11T13:53:08.832Z,23.42
2023-02-11T13:55:35.958Z,24.00
2023-02-11T13:58:08.231Z,23.65
2023-02-11T14:00:34.788Z,22.52
2023-02-11T14:03:47.684Z,22.73
2023-02-11T14:06:34.799Z,22.33
2023-02-11T14:09:11.362Z,22.52
2023-02-11T14:11:45.575Z,22.20
2023-02-11T14:14:19.791Z,23.70
2023-02-11T14:16:59.802Z,22.27
2023-02-11T14:19:45.628Z,21.10
2023-02-11T14:24:54.059Z,20.20
2023-02-11T14:27:27.361Z,20.98
2023-02-11T14:30:08.059Z,21.08
2023-02-11T14:32:45.725Z,20.27
2023-02-11T14:35:33.960Z,19.35
2023-02-11T14:38:19.713Z,20.77
2023-02-11T14:43:35.233Z,18.80
2023-02-11T14:46:03.283Z,19.67
2023-02-11T14:48:38.134Z,19.48
2023-02-11T14:51:16.338Z,19.85
2023-02-11T14:53:48.070Z,20.02
2023-02-11T14:56:42.309Z,19.10
2023-02-11T14:59:20.790Z,19.30
2023-02-11T15:01:54.739Z,19.30
2023-02-11T15:04:25.634Z,19.05
2023-02-11T15:06:54.014Z,18.90
2023-02-11T15:09:28.080Z,17.98
2023-02-11T15:11:56.922Z,18.13
2023-02-11T15:14:27.344Z,17.92
2023-02-11T15:16:57.454Z,18.17
2023-02-11T15:19:36.132Z,20.08
2023-02-11T15:22:18.175Z,18.35
2023-02-11T15:24:44.911Z,16.98
2023-02-11T15:27:17.385Z,17.70
2023-02-11T15:29:49.264Z,17.50
2023-02-11T15:32:21.764Z,18.23
2023-02-11T15:34:51.565Z,18.27
2023-02-11T15:37:32.325Z,18.23
2023-02-11T15:40:15.337Z,17.77
2023-02-11T15:42:56.193Z,17.88
2023-02-11T15:45:29.581Z,16.42
2023-02-11T15:48:06.868Z,17.65
2023-02-11T15:50:37.175Z,17.58
2023-02-11T15:53:19.797Z,19.23
2023-02-11T15:55:48.935Z,17.55
2023-02-11T15:58:15.738Z,19.25
2023-02-11T16:00:50.177Z,18.92
2023-02-11T16:03:25.081Z,17.58
2023-02-11T16:05:51.820Z,18.67
2023-02-11T16:08:25.427Z,18.65
2023-02-11T16:11:08.877Z,18.20
2023-02-11T16:13:46.963Z,18.17
2023-02-11T16:16:26.255Z,17.00
2023-02-11T16:19:04.720Z,17.08
2023-02-11T16:21:36.257Z,16.85
2023-02-11T16:24:03.877Z,17.00
2023-02-11T16:26:39.360Z,18.33
2023-02-11T16:31:43.159Z,16.85
2023-02-11T16:34:25.709Z,18.77
2023-02-11T16:36:52.901Z,20.02
2023-02-11T16:39:22.461Z,18.65
2023-02-11T16:41:53.087Z,20.10
2023-02-11T16:44:20.010Z,20.27
2023-02-11T16:46:46.928Z,20.73
2023-02-11T16:49:21.379Z,19.77
2023-02-11T16:51:51.704Z,20.50
2023-02-11T16:54:19.972Z,21.55
2023-02-11T16:56:46.721Z,21.83
2023-02-11T16:59:13.352Z,21.05
2023-02-11T17:01:41.523Z,22.05
2023-02-11T17:04:44.781Z,22.90
2023-02-11T17:07:11.552Z,20.67
2023-02-11T17:09:38.596Z,21.17
2023-02-11T17:12:06.052Z,22.20
2023-02-11T17:14:32.997Z,21.67
2023-02-11T17:16:59.836Z,21.45
2023-02-11T17:19:26.475Z,22.02
2023-02-11T17:21:53.721Z,20.98
2023-02-11T17:24:22.244Z,21.27
2023-02-11T17:26:50.074Z,21.80
2023-02-11T17:29:22.539Z,19.85
2023-02-11T17:31:49.826Z,21.13
2023-02-11T17:34:16.948Z,21.85
2023-02-11T17:36:43.785Z,22.50
2023-02-11T17:39:10.552Z,21.52
2023-02-11T17:41:38.400Z,21.42
2023-02-11T17:44:06.147Z,21.27
2023-02-11T17:46:34.739Z,20.63
2023-02-11T17:49:02.132Z,21.33
2023-02-11T17:51:34.781Z,22.17
2023-02-11T17:54:04.576Z,21.50
2023-02-11T17:56:35.928Z,22.92
2023-02-11T17:59:03.686Z,22.00
2023-02-11T18:01:32.218Z,24.27
2023-02-11T18:03:59.111Z,22.65
2023-02-11T18:06:26.058Z,24.73
2023-02-11T18:08:52.658Z,25.85
2023-02-11T18:11:19.428Z,26.10
2023-02-11T18:13:51.401Z,25.83
2023-02-11T18:16:17.958Z,27.95
2023-02-11T18:18:45.169Z,28.27
2023-02-11T18:21:13.757Z,28.77
2023-02-11T18:23:40.391Z,29.05
2023-02-11T18:26:08.259Z,28.00
2023-02-11T18:28:34.916Z,28.30
2023-02-11T18:31:02.199Z,28.52
2023-02-11T18:33:30.214Z,28.63
2023-02-11T18:35:57.160Z,28.65
2023-02-11T18:38:24.614Z,28.60
2023-02-11T18:40:52.418Z,27.05
2023-02-11T18:43:20.653Z,27.40
2023-02-11T18:45:48.998Z,29.67
2023-02-11T18:48:16.390Z,27.10
2023-02-11T18:50:44.554Z,27.15
2023-02-11T18:53:12.936Z,26.00
2023-02-11T18:55:43.563Z,27.48
2023-02-11T18:58:11.544Z,27.25
2023-02-11T19:00:44.050Z,25.33
2023-02-11T19:03:10.757Z,26.02
2023-02-11T19:05:47.830Z,25.83
2023-02-11T19:08:14.981Z,25.67
2023-02-11T19:10:43.769Z,25.92
2023-02-11T19:13:10.919Z,26.02
2023-02-11T19:15:42.534Z,24.98
2023-02-11T19:18:09.817Z,25.55
2023-02-11T19:20:40.023Z,25.30
2023-02-11T19:23:06.769Z,24.88
2023-02-11T19:25:33.408Z,25.63
2023-02-11T19:28:00.434Z,24.17
2023-02-11T19:30:27.504Z,26.58
2023-02-11T19:32:57.099Z,24.55
2023-02-11T19:35:25.281Z,24.85
2023-02-11T19:37:52.050Z,24.83
2023-02-11T19:40:19.275Z,25.00
2023-02-11T19:42:45.904Z,24.25
2023-02-11T19:45:12.748Z,24.90
2023-02-11T19:47:41.019Z,25.65
2023-02-11T19:50:08.608Z,25.08
2023-02-11T19:52:38.224Z,24.52
2023-02-11T19:55:05.331Z,23.85
2023-02-11T19:57:31.971Z,23.20
2023-02-11T19:59:58.811Z,24.48
2023-02-11T20:02:25.603Z,25.15
2023-02-11T20:04:52.290Z,23.10
2023-02-11T20:07:18.927Z,24.20
2023-02-11T20:09:45.765Z,23.38
2023-02-11T20:12:12.413Z,23.48
2023-02-11T20:14:39.145Z,22.88
2023-02-11T20:17:06.799Z,24.08
2023-02-11T20:19:33.443Z,24.73
2023-02-11T20:22:00.099Z,22.90
2023-02-11T20:24:26.707Z,23.35
2023-02-11T20:26:56.723Z,23.17
2023-02-11T20:29:24.592Z,23.67
2023-02-11T20:31:51.403Z,24.23
2023-02-11T20:34:18.796Z,23.50
2023-02-11T20:36:51.820Z,23.42
2023-02-11T20:39:21.823Z,24.08
2023-02-11T20:41:50.771Z,31.38
2023-02-11T20:44:17.721Z,28.00
2023-02-11T20:46:48.481Z,24.20
2023-02-11T20:49:18.916Z,25.20
2023-02-11T20:51:45.918Z,23.65
2023-02-11T20:54:15.226Z,23.90
2023-02-11T20:56:42.195Z,22.20
2023-02-11T20:59:09.111Z,21.73
2023-02-11T21:01:40.708Z,21.98
2023-02-11T21:04:13.338Z,21.00
2023-02-11T21:06:45.910Z,21.65
2023-02-11T21:09:15.828Z,21.73
2023-02-11T21:11:43.179Z,22.00
2023-02-11T21:14:10.327Z,21.67
2023-02-11T21:16:37.271Z,22.27
2023-02-11T21:19:04.632Z,21.33
2023-02-11T21:21:31.672Z,22.45
2023-02-11T21:23:59.436Z,21.58
2023-02-11T21:26:26.281Z,19.95
2023-02-11T21:28:55.122Z,21.08
2023-02-11T21:31:27.576Z,21.08
2023-02-11T21:33:56.736Z,20.88
2023-02-11T21:36:23.951Z,22.10
2023-02-11T21:38:51.051Z,21.65
2023-02-11T21:41:18.901Z,20.65
2023-02-11T21:43:45.657Z,20.35
2023-02-11T21:46:15.206Z,22.58
2023-02-11T21:48:42.910Z,20.17
2023-02-11T21:51:13.849Z,20.38
2023-02-11T21:53:40.486Z,21.33
2023-02-11T21:56:12.856Z,20.35
2023-02-11T21:58:40.001Z,21.02
2023-02-11T22:01:16.780Z,20.98
2023-02-11T22:03:44.025Z,19.98
2023-02-11T22:06:13.637Z,20.55
2023-02-11T22:08:40.879Z,21.10
2023-02-11T22:11:12.206Z,21.00
2023-02-11T22:13:39.490Z,20.33
2023-02-11T22:16:08.834Z,20.35
2023-02-11T22:18:35.825Z,20.10
2023-02-11T22:21:14.546Z,20.08
2023-02-11T22:23:41.288Z,21.23
2023-02-11T22:26:12.537Z,20.17
2023-02-11T22:28:40.934Z,20.25
2023-02-11T22:31:12.379Z,21.27
2023-02-11T22:33:39.399Z,20.60
2023-02-11T22:36:08.591Z,20.45
2023-02-11T22:38:35.744Z,20.23
2023-02-11T22:41:07.943Z,20.13
2023-02-11T22:43:34.871Z,20.35
2023-02-11T22:46:03.268Z,21.95
2023-02-11T22:48:29.961Z,20.15
2023-02-11T22:50:57.111Z,19.15
2023-02-11T22:53:25.588Z,20.30
2023-02-11T22:55:52.517Z,20.40
2023-02-11T22:58:19.377Z,20.23
2023-02-11T23:00:46.030Z,19.75
2023-02-11T23:03:12.961Z,20.27
2023-02-11T23:05:41.346Z,19.63
2023-02-11T23:08:10.123Z,20.05
2023-02-11T23:10:38.606Z,19.77
2023-02-11T23:13:06.669Z,20.25
2023-02-11T23:15:34.127Z,18.65
2023-02-11T23:18:00.767Z,19.25
2023-02-11T23:20:27.398Z,20.15
2023-02-11T23:22:54.037Z,19.45
2023-02-11T23:25:20.775Z,19.00
2023-02-11T23:27:47.413Z,18.08
2023-02-11T23:30:14.466Z,19.05
2023-02-11T23:32:41.094Z,17.58
2023-02-11T23:35:07.948Z,18.50
2023-02-11T23:37:34.576Z,18.58
2023-02-11T23:40:01.412Z,18.90
2023-02-11T23:42:29.187Z,17.30
2023-02-11T23:44:55.778Z,17.40
2023-02-11T23:47:22.357Z,17.92
2023-02-11T23:49:48.990Z,18.25
2023-02-11T23:52:15.627Z,17.95
2023-02-11T23:54:43.404Z,19.63
2023-02-11T23:57:10.120Z,18.88
2023-02-11T23:59:36.863Z,19.60
